Time;durP1;ratioP1;P1;durP2;ratioP2;P2;SDS_P1;SDS_P2;PMS_P1;PMS_P2;Temp;Humidity;BMP_temperature;BMP_pressure;BME280_temperature;BME280_humidity;BME280_pressure;Samples;Min_cycle;Max_cycle;Signal;HPM_P1;HPM_P2
2021/07/26 06:37:57;;;;;;;10.93;7.50;;;;;;;30.71;43.98;101843.39;1595110;90;21145;-49
2021/07/26 06:43:54;;;;;;;11.15;9.50;;;;;;;30.73;41.99;101842.76;1594974;90;21109;-49
2021/07/26 06:46:21;;;;;;;10.53;8.65;;;;;;;30.78;44.12;101843.17;1595277;90;21515;-50
2021/07/26 06:48:48;;;;;;;15.18;8.75;;;;;;;30.78;43.86;101842.69;1595216;90;21055;-51
2021/07/26 06:51:15;;;;;;;10.50;9.15;;;;;;;30.77;43.97;101846.34;1595161;90;21106;-48
2021/07/26 06:53:42;;;;;;;15.25;10.38;;;;;;;30.78;44.18;101849.89;1595160;90;21070;-48
2021/07/26 06:56:10;;;;;;;11.93;9.45;;;;;;;30.78;44.41;101855.27;1595178;90;21039;-52
2021/07/26 06:58:39;;;;;;;15.45;9.75;;;;;;;30.76;44.67;101854.55;1594975;90;21089;-54
2021/07/26 07:01:11;;;;;;;9.93;8.13;;;;;;;30.74;44.97;101857.39;1595125;90;21018;-51
2021/07/26 07:03:42;;;;;;;19.42;8.75;;;;;;;30.74;44.44;101859.22;1595091;90;21054;-48
2021/07/26 07:06:10;;;;;;;;;;;;;;;30.72;43.55;101864.73;1597536;90;21127;-48
2021/07/26 07:08:39;;;;;;;7.95;7.05;;;;;;;30.77;43.27;101868.36;1594955;88;20167;-48
2021/07/26 07:11:13;;;;;;;11.03;7.45;;;;;;;30.79;42.65;101870.42;1595206;90;21042;-47
2021/07/26 07:13:45;;;;;;;12.18;7.55;;;;;;;30.83;42.24;101865.95;1594938;90;21070;-54
2021/07/26 07:16:17;;;;;;;;;;;;;;;30.88;42.01;101869.61;1541512;91;21081;-49
2021/07/26 07:18:52;;;;;;;11.03;7.67;;;;;;;30.93;41.35;101870.06;1493037;95;20117;-49
2021/07/26 07:21:29;;;;;;;12.88;7.20;;;;;;;30.97;40.82;101869.66;1500610;95;21224;-49
2021/07/26 07:24:00;;;;;;;19.12;7.78;;;;;;;31.04;41.47;101869.93;1450350;99;21101;-50
2021/07/26 07:26:27;;;;;;;11.38;8.10;;;;;;;31.12;41.59;101882.19;1448797;99;21121;-49
2021/07/26 07:28:53;;;;;;;7.60;6.80;;;;;;;31.17;41.31;101878.11;1448596;99;21116;-49
2021/07/26 07:33:51;;;;;;;11.75;7.37;;;;;;;31.27;40.95;101871.39;1424587;101;21120;-51
2021/07/26 07:36:18;;;;;;;13.93;7.47;;;;;;;31.33;40.94;101869.48;1462628;97;21166;-49
2021/07/26 07:38:44;;;;;;;10.15;7.40;;;;;;;31.39;40.76;101870.30;1440530;98;21119;-49
2021/07/26 07:41:11;;;;;;;13.38;7.72;;;;;;;31.44;40.96;101867.20;1432771;100;21113;-50
2021/07/26 07:43:38;;;;;;;13.35;8.13;;;;;;;31.49;41.52;101862.26;1431982;98;21157;-49
2021/07/26 07:46:05;;;;;;;13.80;8.50;;;;;;;31.54;41.16;101860.83;1433480;98;21742;-49
2021/07/26 07:48:32;;;;;;;15.30;11.55;;;;;;;31.57;41.21;101852.98;1437007;97;21189;-51
2021/07/26 07:51:00;;;;;;;18.92;15.53;;;;;;;31.61;40.71;101860.63;1431782;98;21167;-50
2021/07/26 07:53:27;;;;;;;10.25;8.53;;;;;;;31.63;41.06;101865.38;1429215;98;21150;-50
2021/07/26 07:55:54;;;;;;;16.45;7.70;;;;;;;31.66;40.58;101864.21;1415812;99;21664;-52
2021/07/26 07:58:21;;;;;;;11.85;7.47;;;;;;;31.68;40.05;101875.20;1427918;99;21117;-50
2021/07/26 08:00:52;;;;;;;11.33;7.08;;;;;;;31.70;40.35;101877.25;1423525;99;21124;-53
2021/07/26 08:03:20;;;;;;;7.78;6.58;;;;;;;31.73;40.15;101878.32;1419441;99;21283;-51
2021/07/26 08:05:48;;;;;;;9.75;6.75;;;;;;;31.76;39.78;101879.85;1423375;98;21120;-51
2021/07/26 08:08:15;;;;;;;9.05;7.70;;;;;;;31.78;39.78;101878.73;1418737;99;21128;-52
2021/07/26 08:10:42;;;;;;;7.30;6.55;;;;;;;31.82;40.02;101884.17;1432207;94;21150;-49
2021/07/26 08:13:09;;;;;;;8.83;6.58;;;;;;;31.85;39.70;101878.52;1506497;93;21585;-51
2021/07/26 08:15:35;;;;;;;11.83;7.35;;;;;;;31.90;39.92;101881.61;1527593;91;21107;-49
2021/07/26 08:18:03;;;;;;;7.75;7.00;;;;;;;31.94;40.36;101879.53;1558486;90;21063;-51
2021/07/26 08:20:29;;;;;;;10.43;6.90;;;;;;;31.99;40.24;101888.87;1582932;87;21031;-51
2021/07/26 08:22:56;;;;;;;8.08;6.78;;;;;;;32.04;40.10;101885.75;1613449;87;21073;-47
2021/07/26 08:25:23;;;;;;;8.60;7.28;;;;;;;32.09;40.09;101887.49;1606546;87;21072;-53
2021/07/26 08:27:58;;;;;;;16.42;7.60;;;;;;;32.14;40.46;101885.72;1620865;87;21036;-47
2021/07/26 08:30:28;;;;;;;7.78;7.08;;;;;;;32.19;41.14;101886.15;1615591;87;21042;-50
2021/07/26 08:32:55;;;;;;;8.15;7.33;;;;;;;32.23;40.91;101883.52;1625435;86;21025;-48
2021/07/26 08:35:22;;;;;;;10.08;6.85;;;;;;;32.23;40.39;101884.86;1609693;88;21057;-51
2021/07/26 08:37:49;;;;;;;10.13;6.83;;;;;;;32.24;39.76;101882.50;1621492;85;21529;-51
2021/07/26 08:40:16;;;;;;;20.97;8.20;;;;;;;32.25;39.51;101886.91;1616283;87;21109;-52
2021/07/26 08:42:43;;;;;;;12.30;6.17;;;;;;;32.24;39.61;101881.16;1598710;87;21029;-50
2021/07/26 08:45:11;;;;;;;13.03;6.45;;;;;;;32.25;39.04;101881.52;1620595;87;21638;-50
2021/07/26 08:47:40;;;;;;;7.55;6.85;;;;;;;32.26;39.44;101877.33;1622144;88;21066;-48
2021/07/26 08:50:09;;;;;;;7.53;6.50;;;;;;;32.30;39.62;101877.87;1628718;87;21052;-47
2021/07/26 08:52:42;;;;;;;12.73;8.35;;;;;;;32.32;40.30;101870.49;1622611;87;21541;-48
2021/07/26 08:55:13;;;;;;;10.58;8.08;;;;;;;32.38;40.60;101875.30;1614697;87;21022;-50
2021/07/26 08:57:42;;;;;;;13.43;7.83;;;;;;;32.42;40.50;101877.55;1623154;87;21139;-50
2021/07/26 09:00:10;;;;;;;14.05;9.10;;;;;;;32.46;40.59;101878.16;1624006;87;21038;-49
2021/07/26 09:02:38;;;;;;;9.28;7.53;;;;;;;32.51;41.20;101874.51;1610875;88;21034;-48
2021/07/26 09:05:13;;;;;;;9.03;6.60;;;;;;;32.56;40.69;101877.63;1605433;88;21522;-48
2021/07/26 09:07:47;;;;;;;10.50;6.95;;;;;;;32.60;40.21;101866.89;1540321;91;21117;-48
2021/07/26 09:10:19;;;;;;;8.80;7.97;;;;;;;32.65;39.77;101880.75;1541715;91;21102;-49
2021/07/26 09:12:48;;;;;;;;;;;;;;;32.70;40.47;101873.09;1549752;91;21103;-47
2021/07/26 09:15:33;;;;;;;7.78;6.95;;;;;;;32.72;40.28;101871.09;1541152;92;20178;-49
2021/07/26 09:18:08;;;;;;;9.93;6.28;;;;;;;32.74;40.24;101871.78;1540327;90;21076;-47
2021/07/26 09:20:39;;;;;;;8.03;6.70;;;;;;;32.76;39.01;101864.40;1547751;90;21158;-52
2021/07/26 09:23:16;;;;;;;10.65;6.75;;;;;;;32.79;37.94;101868.13;1515902;93;21577;-48
2021/07/26 09:25:45;;;;;;;9.13;6.67;;;;;;;32.84;37.89;101867.19;1579306;89;21573;-50
2021/07/26 09:28:15;;;;;;;18.77;7.35;;;;;;;32.89;37.57;101856.81;1558375;89;21049;-50
2021/07/26 09:30:51;;;;;;;10.13;6.33;;;;;;;32.92;36.93;101857.84;1585229;89;21103;-49
2021/07/26 09:33:27;;;;;;;8.80;6.17;;;;;;;32.94;36.76;101862.59;1540248;92;21561;-48
2021/07/26 09:36:19;;;;;;;6.05;5.45;;;;;;;32.95;36.74;101860.25;1487446;96;21084;-51
2021/07/26 09:38:55;;;;;;;8.13;5.95;;;;;;;32.97;36.56;101863.65;1527343;93;21642;-49
2021/07/26 09:41:48;;;;;;;9.05;5.28;;;;;;;33.01;36.47;101858.33;1513140;95;21165;-50
2021/07/26 09:44:23;;;;;;;9.25;5.95;;;;;;;33.05;35.97;101861.07;1502172;95;21120;-49
2021/07/26 09:46:51;;;;;;;11.40;6.08;;;;;;;33.09;35.95;101863.81;1455608;98;21625;-49
2021/07/26 09:49:19;;;;;;;11.20;8.15;;;;;;;33.11;35.83;101859.11;1466078;97;21125;-49
2021/07/26 09:52:08;;;;;;;12.88;8.65;;;;;;;33.13;35.46;101858.95;1467156;97;21170;-48
2021/07/26 09:54:44;;;;;;;6.42;5.78;;;;;;;33.15;34.79;101863.20;1452070;98;21144;-49
2021/07/26 09:57:18;;;;;;;8.10;5.72;;;;;;;33.17;34.17;101859.84;1448319;98;21150;-50
2021/07/26 09:59:51;;;;;;;9.53;6.33;;;;;;;33.17;34.56;101855.80;1432749;98;40267;-50
2021/07/26 10:02:20;;;;;;;9.85;5.35;;;;;;;33.22;34.50;101855.35;1414080;98;21443;-48
2021/07/26 10:04:47;;;;;;;21.93;9.15;;;;;;;33.29;34.09;101854.58;1462265;97;21025;-48
2021/07/26 10:07:16;;;;;;;11.25;6.53;;;;;;;33.34;34.28;101859.02;1461476;97;21033;-49
2021/07/26 10:09:51;;;;;;;10.55;6.20;;;;;;;33.39;34.87;101850.44;1452775;97;21100;-52
2021/07/26 10:12:20;;;;;;;20.20;9.68;;;;;;;33.42;34.55;101851.00;1474528;93;21638;-50
2021/07/26 10:14:50;;;;;;;13.40;7.10;;;;;;;33.46;34.58;101849.69;1509021;93;21578;-48
2021/07/26 10:17:18;;;;;;;10.65;6.85;;;;;;;33.48;35.11;101847.68;1524311;93;21065;-50
2021/07/26 10:19:46;;;;;;;9.00;6.05;;;;;;;33.49;35.88;101842.64;1520016;92;21605;-50
2021/07/26 10:22:19;;;;;;;10.88;6.15;;;;;;;33.51;36.21;101843.34;1520953;93;21025;-52
2021/07/26 10:24:50;;;;;;;8.83;6.00;;;;;;;33.53;36.20;101852.12;1524136;93;21073;-51
2021/07/26 10:27:26;;;;;;;;;;;;;;;33.55;36.39;101844.72;1495943;94;21129;-49
2021/07/26 10:29:57;;;;;;;8.85;6.83;;;;;;;33.56;35.93;101843.73;1528047;92;20135;-49
2021/07/26 10:32:32;;;;;;;9.88;6.90;;;;;;;33.58;35.98;101846.27;1521019;93;21072;-49
2021/07/26 10:35:01;;;;;;;8.83;6.40;;;;;;;33.60;36.04;101850.52;1524940;92;21057;-50
2021/07/26 10:37:45;;;;;;;7.92;6.42;;;;;;;33.62;35.92;101840.41;1520796;92;21087;-53
2021/07/26 10:40:28;;;;;;;9.68;6.80;;;;;;;33.64;35.82;101843.80;1519768;92;21134;-51
2021/07/26 10:43:02;;;;;;;8.70;6.53;;;;;;;33.67;35.79;101845.84;1516540;91;21697;-49
2021/07/26 10:45:38;;;;;;;10.68;6.65;;;;;;;33.69;36.35;101836.58;1593336;88;21582;-49
2021/07/26 10:48:30;;;;;;;8.53;6.62;;;;;;;33.70;36.59;101838.76;1610989;88;21022;-49
2021/07/26 10:51:01;;;;;;;8.08;6.55;;;;;;;33.72;36.79;101834.91;1602894;88;21507;-53
2021/07/26 10:53:39;;;;;;;7.85;6.37;;;;;;;33.74;36.30;101829.38;1547196;90;21057;-49
2021/07/26 10:56:15;;;;;;;6.55;5.65;;;;;;;33.75;36.32;101831.05;1575751;89;21116;-48
2021/07/26 10:59:00;;;;;;;9.60;6.95;;;;;;;33.75;36.62;101827.00;1571138;89;21080;-49
2021/07/26 11:01:33;;;;;;;12.30;6.75;;;;;;;33.79;35.82;101823.84;1540314;91;21071;-47
2021/07/26 11:04:00;;;;;;;10.82;6.97;;;;;;;33.81;35.96;101820.97;1535431;92;21167;-48
2021/07/26 11:09:34;;;;;;;10.98;6.50;;;;;;;33.85;35.85;101823.70;1541303;92;21221;-48
2021/07/26 11:12:05;;;;;;;13.25;6.60;;;;;;;33.89;35.64;101827.77;1543876;92;21093;-52
2021/07/26 11:14:34;;;;;;;10.60;5.60;;;;;;;33.91;35.38;101827.97;1530249;92;21091;-49
2021/07/26 11:17:09;;;;;;;9.93;5.97;;;;;;;33.93;35.18;101821.91;1545264;92;21106;-52
2021/07/26 11:19:49;;;;;;;7.55;5.62;;;;;;;33.98;34.55;101826.84;1452654;97;21623;-51
2021/07/26 11:22:22;;;;;;;12.73;6.17;;;;;;;34.00;33.75;101827.06;1465204;97;21158;-51
2021/07/26 11:24:53;;;;;;;9.08;5.80;;;;;;;34.02;34.81;101827.75;1464588;97;21111;-50
2021/07/26 11:27:43;;;;;;;10.80;6.15;;;;;;;34.06;35.56;101826.92;1466474;97;21766;-48
2021/07/26 11:30:11;;;;;;;8.80;5.45;;;;;;;34.09;36.37;101823.87;1459363;97;21108;-51
2021/07/26 11:32:39;;;;;;;6.97;6.15;;;;;;;34.11;36.15;101817.81;1427769;98;21245;-49
2021/07/26 11:35:10;;;;;;;9.70;6.15;;;;;;;34.13;36.15;101819.84;1423055;100;21140;-51
2021/07/26 11:37:39;;;;;;;8.43;5.92;;;;;;;34.14;35.74;101818.86;1393017;101;21161;-51
2021/07/26 11:40:10;;;;;;;8.53;6.20;;;;;;;34.13;34.90;101810.39;1374124;102;21206;-50
2021/07/26 11:42:40;;;;;;;9.18;6.35;;;;;;;34.15;35.64;101816.52;1396653;101;21139;-51
2021/07/26 11:45:11;;;;;;;7.47;5.92;;;;;;;34.13;36.10;101809.90;1411523;100;21117;-50
2021/07/26 11:47:43;;;;;;;10.08;6.40;;;;;;;34.12;36.11;101810.07;1400503;100;21219;-47
2021/07/26 11:50:15;;;;;;;7.10;6.20;;;;;;;34.11;36.73;101813.76;1419910;98;21125;-49
2021/07/26 11:52:57;;;;;;;10.85;7.00;;;;;;;34.09;36.85;101810.38;1445180;99;21098;-49
2021/07/26 11:55:34;;;;;;;10.75;6.37;;;;;;;34.06;37.65;101810.71;1440642;98;21134;-49
2021/07/26 12:00:46;;;;;;;8.40;6.00;;;;;;;34.01;37.26;101813.88;1440639;98;21143;-48
2021/07/26 12:03:13;;;;;;;10.28;5.50;;;;;;;33.98;37.32;101817.38;1439599;98;21154;-49
2021/07/26 12:05:42;;;;;;;10.35;6.20;;;;;;;33.95;37.58;101816.33;1434632;98;21538;-50
2021/07/26 12:08:22;;;;;;;9.55;7.05;;;;;;;33.91;37.93;101820.36;1431060;99;21190;-49
2021/07/26 12:10:50;;;;;;;6.92;5.72;;;;;;;33.85;39.08;101816.95;1427188;99;21173;-51
2021/07/26 12:13:19;;;;;;;8.80;6.10;;;;;;;33.81;37.98;101811.52;1422208;99;21131;-50
2021/07/26 12:15:50;;;;;;;10.00;6.53;;;;;;;33.79;37.78;101812.18;1424917;99;21080;-51
2021/07/26 12:18:19;;;;;;;8.20;5.70;;;;;;;33.77;37.50;101809.64;1396955;101;21105;-50
2021/07/26 12:21:00;;;;;;;7.83;6.08;;;;;;;33.74;37.37;101807.77;1378733;103;21217;-51
2021/07/26 12:23:31;;;;;;;9.30;6.47;;;;;;;33.71;38.06;101810.77;1369786;101;21121;-52
2021/07/26 12:26:08;;;;;;;8.98;5.65;;;;;;;33.67;38.53;101805.34;1354585;104;21363;-50
2021/07/26 12:28:50;;;;;;;6.70;4.50;;;;;;;33.67;38.42;101802.65;1335549;106;21686;-48
2021/07/26 12:31:35;;;;;;;9.13;5.20;;;;;;;33.68;36.08;101809.72;1339418;106;21155;-49
2021/07/26 12:34:21;;;;;;;8.63;5.15;;;;;;;33.69;35.46;101807.38;1339672;106;21375;-51
2021/07/26 12:36:48;;;;;;;8.15;5.70;;;;;;;33.71;35.51;101799.98;1339399;106;21186;-51
2021/07/26 12:39:20;;;;;;;8.58;5.62;;;;;;;33.73;36.26;101802.02;1341624;106;21205;-49
2021/07/26 12:41:50;;;;;;;10.72;5.62;;;;;;;33.78;36.19;101802.41;1349389;104;21217;-51
2021/07/26 12:44:35;;;;;;;11.40;10.30;;;;;;;33.81;35.03;101803.42;1335224;106;21197;-49
2021/07/26 12:47:09;;;;;;;8.93;5.75;;;;;;;33.88;35.55;101803.14;1277085;111;21234;-49
2021/07/26 12:49:36;;;;;;;6.05;4.50;;;;;;;33.94;35.10;101798.45;1279276;109;22206;-50
2021/07/26 12:52:03;;;;;;;4.47;4.08;;;;;;;34.02;34.96;101802.09;1273898;111;21272;-51
2021/07/26 12:54:44;;;;;;;5.25;3.98;;;;;;;34.09;34.43;101799.56;1292940;110;21256;-50
2021/07/26 12:57:11;;;;;;;9.50;4.35;;;;;;;34.15;34.62;101793.02;1287728;109;21303;-49
2021/07/26 12:59:38;;;;;;;5.83;3.80;;;;;;;34.23;34.66;101794.94;1271313;112;21278;-51
2021/07/26 13:02:05;;;;;;;7.12;4.35;;;;;;;34.30;34.83;101789.22;1265128;112;21221;-51
2021/07/26 13:04:33;;;;;;;5.33;3.72;;;;;;;34.34;34.68;101790.09;1263550;112;21233;-49
2021/07/26 13:07:00;;;;;;;5.80;3.95;;;;;;;34.40;34.46;101790.78;1265814;112;21197;-49
2021/07/26 13:09:26;;;;;;;4.80;4.30;;;;;;;34.43;34.93;101786.42;1266761;112;21752;-49
2021/07/26 13:11:53;;;;;;;10.30;8.25;;;;;;;34.48;34.56;101787.26;1265356;112;21783;-51
2021/07/26 13:14:21;;;;;;;6.85;5.70;;;;;;;34.51;34.96;101784.28;1258561;113;21356;-49
2021/07/26 13:16:48;;;;;;;6.97;4.60;;;;;;;34.56;34.80;101787.32;1261353;112;21337;-49
2021/07/26 13:19:17;;;;;;;7.97;3.92;;;;;;;34.58;34.25;101790.73;1342393;104;21721;-50
2021/07/26 13:21:45;;;;;;;4.35;3.95;;;;;;;34.60;31.96;101787.36;1358987;101;21140;-49
2021/07/26 13:24:12;;;;;;;5.60;4.22;;;;;;;34.61;32.45;101789.04;1411872;100;21251;-49
2021/07/26 13:26:39;;;;;;;6.25;5.03;;;;;;;34.63;33.73;101789.72;1410757;101;21140;-49
2021/07/26 13:29:06;;;;;;;5.85;4.80;;;;;;;34.64;34.38;101787.38;1409293;101;21170;-50
2021/07/26 13:31:35;;;;;;;4.40;4.00;;;;;;;34.66;34.67;101782.65;1407935;101;21649;-49
2021/07/26 13:34:02;;;;;;;5.40;4.35;;;;;;;34.66;35.24;101785.35;1409622;101;21168;-49
2021/07/26 13:36:30;;;;;;;4.62;3.98;;;;;;;34.67;35.60;101786.17;1404874;101;21164;-50
2021/07/26 13:38:57;;;;;;;5.58;4.30;;;;;;;34.68;35.88;101791.94;1413015;101;21732;-48
2021/07/26 13:41:24;;;;;;;6.78;4.33;;;;;;;34.69;35.36;101794.97;1488422;92;21198;-49
2021/07/26 13:43:51;;;;;;;5.97;3.40;;;;;;;34.68;34.61;101794.64;1585296;87;21030;-48
2021/07/26 13:46:18;;;;;;;5.85;3.42;;;;;;;34.69;34.78;101795.82;1640248;87;21012;-50
2021/07/26 13:48:45;;;;;;;8.43;6.00;;;;;;;34.69;34.94;101794.47;1641248;87;21479;-51
2021/07/26 13:51:11;;;;;;;11.00;8.40;;;;;;;34.68;34.78;101790.09;1648094;86;21008;-49
2021/07/26 13:53:38;;;;;;;8.80;7.72;;;;;;;34.67;35.54;101789.73;1637308;86;21083;-48
2021/07/26 13:56:05;;;;;;;12.35;11.05;;;;;;;34.66;34.71;101786.70;1635218;87;21099;-50
2021/07/26 13:58:32;;;;;;;11.85;9.15;;;;;;;34.67;34.24;101789.73;1625781;85;21053;-48
2021/07/26 14:01:00;;;;;;;6.60;6.00;;;;;;;34.66;34.02;101788.06;1639009;86;21059;-49
2021/07/26 14:03:26;;;;;;;5.85;5.22;;;;;;;34.65;33.32;101787.70;1641968;86;21083;-50
2021/07/26 14:05:53;;;;;;;6.25;4.03;;;;;;;34.65;33.51;101780.94;1629153;87;21126;-52
2021/07/26 14:08:20;;;;;;;24.27;19.15;;;;;;;34.64;32.06;101786.02;1632326;86;21552;-54
2021/07/26 14:10:47;;;;;;;11.57;8.43;;;;;;;34.64;31.76;101783.81;1599007;88;21112;-49
2021/07/26 14:13:14;;;;;;;9.13;5.10;;;;;;;34.63;31.98;101782.96;1639395;86;21540;-52
2021/07/26 14:15:41;;;;;;;6.35;3.87;;;;;;;34.64;32.35;101786.52;1621536;87;21014;-49
2021/07/26 14:18:08;;;;;;;9.53;4.12;;;;;;;34.64;32.99;101780.61;1609577;88;21580;-50
2021/07/26 14:20:35;;;;;;;7.45;3.80;;;;;;;34.65;33.08;101786.34;1609552;87;21065;-48
2021/07/26 14:23:02;;;;;;;146.65;131.27;;;;;;;34.64;33.29;101781.97;1620698;87;21050;-50
2021/07/26 14:25:46;;;;;;;39.85;36.05;;;;;;;34.49;33.60;101777.33;1604628;87;21141;-49
2021/07/26 14:28:22;;;;;;;163.07;139.95;;;;;;;34.49;34.01;101783.59;1591088;88;21101;-49
2021/07/26 14:30:48;;;;;;;281.80;251.58;;;;;;;34.55;33.25;101774.83;1615362;88;21049;-50
2021/07/26 14:33:15;;;;;;;407.75;363.95;;;;;;;34.55;33.96;101778.89;1619936;87;21045;-49
2021/07/26 14:35:46;;;;;;;255.65;229.97;;;;;;;34.53;34.35;101774.15;1613377;87;21117;-53
2021/07/26 14:38:17;;;;;;;198.05;176.80;;;;;;;34.50;34.05;101769.05;1541279;92;21573;-50
2021/07/26 14:40:47;;;;;;;414.75;369.35;;;;;;;34.48;34.31;101776.45;1470328;96;21155;-49
2021/07/26 14:43:19;;;;;;;261.62;234.05;;;;;;;34.46;34.55;101774.94;1452535;97;21105;-49
2021/07/26 14:45:49;;;;;;;315.87;282.53;;;;;;;34.46;34.46;101774.94;1440856;98;21160;-49
2021/07/26 14:48:18;;;;;;;349.25;311.55;;;;;;;34.44;34.69;101775.08;1441173;98;21162;-50
2021/07/26 14:50:44;;;;;;;287.63;257.02;;;;;;;34.42;35.15;101777.10;1451853;97;21878;-51
2021/07/26 14:53:13;;;;;;;369.25;329.63;;;;;;;34.40;35.47;101775.06;1453219;98;21165;-50
2021/07/26 14:55:46;;;;;;;443.43;396.60;;;;;;;34.38;35.57;101767.62;1394097;101;21173;-48
2021/07/26 14:58:13;;;;;;;361.92;323.75;;;;;;;34.35;35.68;101771.53;1379342;102;21194;-49
2021/07/26 15:00:39;;;;;;;248.03;223.07;;;;;;;34.33;34.93;101769.47;1372053;103;21210;-50
2021/07/26 15:03:06;;;;;;;271.40;244.45;;;;;;;34.30;34.17;101767.60;1368568;103;21625;-50
2021/07/26 15:05:33;;;;;;;199.47;177.60;;;;;;;34.28;34.77;101770.47;1372587;103;21230;-50
2021/07/26 15:08:00;;;;;;;206.45;184.52;;;;;;;34.28;35.57;101770.97;1368928;103;21176;-50
2021/07/26 15:10:29;;;;;;;72.75;64.25;;;;;;;34.26;36.26;101771.64;1370630;103;21155;-49
2021/07/26 15:12:58;;;;;;;37.28;33.33;;;;;;;34.23;36.47;101764.70;1418148;99;21161;-50
2021/07/26 15:15:25;;;;;;;22.95;20.60;;;;;;;34.20;36.55;101766.39;1404514;100;21181;-50
2021/07/26 15:17:52;;;;;;;9.25;7.70;;;;;;;34.18;36.33;101764.84;1417280;100;21148;-50
2021/07/26 15:20:19;;;;;;;30.02;21.05;;;;;;;34.15;35.61;101758.44;1417242;100;21203;-52
2021/07/26 15:22:46;;;;;;;79.50;59.23;;;;;;;34.11;35.51;101759.73;1417220;100;21184;-49
2021/07/26 15:25:13;;;;;;;96.28;80.92;;;;;;;34.05;35.62;101760.38;1411934;99;21206;-49
2021/07/26 15:27:40;;;;;;;27.70;23.55;;;;;;;34.01;34.47;101761.71;1447643;98;21127;-51
2021/07/26 15:30:09;;;;;;;27.17;22.45;;;;;;;33.96;32.88;101761.33;1450434;97;21143;-51
2021/07/26 15:32:36;;;;;;;66.70;53.40;;;;;;;33.91;32.78;101755.55;1432819;99;21082;-51
2021/07/26 15:35:05;;;;;;;84.07;69.87;;;;;;;33.87;32.37;101762.28;1491725;92;21074;-49
2021/07/26 15:37:32;;;;;;;28.77;25.65;;;;;;;33.84;33.01;101762.09;1534154;92;21059;-49
2021/07/26 15:39:59;;;;;;;12.65;8.43;;;;;;;33.81;33.68;101760.22;1564599;90;21097;-48
2021/07/26 15:42:25;;;;;;;7.97;4.90;;;;;;;33.78;34.36;101760.55;1568609;90;21112;-48
2021/07/26 15:44:53;;;;;;;5.12;4.55;;;;;;;33.74;34.60;101756.48;1568899;90;21148;-52
2021/07/26 15:47:20;;;;;;;7.75;4.00;;;;;;;33.71;33.95;101759.48;1535018;92;21136;-50
2021/07/26 15:49:47;;;;;;;7.33;3.65;;;;;;;33.64;34.74;101754.72;1546062;91;21100;-49
2021/07/26 15:52:13;;;;;;;15.43;9.03;;;;;;;33.60;34.69;101754.69;1555039;91;21561;-53
2021/07/26 15:54:41;;;;;;;14.85;11.75;;;;;;;33.57;34.05;101752.82;1619735;88;21047;-50
2021/07/26 15:57:08;;;;;;;10.05;7.15;;;;;;;33.54;34.89;101758.03;1614585;88;21106;-50
2021/07/26 15:59:34;;;;;;;10.78;7.42;;;;;;;33.52;35.67;101758.69;1614188;88;21026;-50
2021/07/26 16:02:03;;;;;;;34.23;26.93;;;;;;;33.49;36.81;101758.98;1614725;87;21066;-53
2021/07/26 16:04:30;;;;;;;15.18;13.60;;;;;;;33.46;37.82;101767.38;1617766;87;21542;-49
2021/07/26 16:06:58;;;;;;;26.37;22.52;;;;;;;33.43;38.84;101764.98;1617063;88;21030;-51
2021/07/26 16:09:25;;;;;;;25.62;22.35;;;;;;;33.39;40.12;101763.60;1616258;88;21125;-49
2021/07/26 16:11:52;;;;;;;14.63;13.20;;;;;;;33.36;40.50;101763.94;1638804;86;21052;-50
2021/07/26 16:14:19;;;;;;;14.47;10.53;;;;;;;33.30;40.32;101759.16;1625242;86;21014;-49
2021/07/26 16:16:47;;;;;;;10.10;7.97;;;;;;;33.26;39.75;101755.05;1623963;87;21064;-51
2021/07/26 16:19:14;;;;;;;8.95;8.05;;;;;;;33.21;38.97;101750.64;1636136;86;21582;-50
2021/07/26 16:21:41;;;;;;;6.70;5.45;;;;;;;33.17;37.79;101756.00;1645058;86;21512;-51
2021/07/26 16:24:09;;;;;;;7.90;4.58;;;;;;;33.12;35.88;101750.21;1639399;87;21620;-50
2021/07/26 16:26:36;;;;;;;6.95;5.25;;;;;;;33.09;33.75;101755.94;1639651;87;21112;-52
2021/07/26 16:29:03;;;;;;;11.60;8.55;;;;;;;33.05;31.49;101751.00;1629443;87;21115;-50
2021/07/26 16:31:31;;;;;;;11.00;6.47;;;;;;;33.03;30.54;101753.86;1641331;87;21060;-49
2021/07/26 16:34:01;;;;;;;14.87;6.92;;;;;;;33.00;30.33;101754.15;1581871;88;21059;-51
2021/07/26 16:36:29;;;;;;;31.27;24.63;;;;;;;32.98;30.51;101748.06;1553362;91;21068;-52
2021/07/26 16:38:58;;;;;;;14.50;11.12;;;;;;;32.96;31.25;101744.64;1563824;91;21126;-49
2021/07/26 16:41:24;;;;;;;12.03;8.90;;;;;;;32.94;32.12;101749.34;1559609;91;21132;-47
2021/07/26 16:43:51;;;;;;;15.10;9.78;;;;;;;32.92;32.45;101750.00;1553595;91;21083;-47
2021/07/26 16:46:17;;;;;;;13.35;7.25;;;;;;;32.91;32.54;101743.42;1556995;91;21103;-50
2021/07/26 16:48:46;;;;;;;9.28;6.55;;;;;;;32.89;32.47;101744.41;1556661;91;21094;-51
2021/07/26 16:51:13;;;;;;;9.75;5.35;;;;;;;32.89;32.52;101748.97;1562446;91;21128;-48
2021/07/26 16:53:39;;;;;;;12.63;6.65;;;;;;;32.89;32.61;101746.27;1556102;91;21097;-47
2021/07/26 16:56:06;;;;;;;12.68;5.65;;;;;;;32.88;33.08;101745.42;1548948;92;21085;-47
2021/07/26 16:58:33;;;;;;;6.15;5.33;;;;;;;32.88;33.69;101741.38;1544456;92;21561;-48
2021/07/26 17:00:59;;;;;;;9.15;6.22;;;;;;;32.89;33.97;101740.88;1548121;92;21173;-50
2021/07/26 17:03:26;;;;;;;11.50;7.33;;;;;;;32.88;34.04;101741.87;1540713;92;21674;-47
2021/07/26 17:05:53;;;;;;;14.33;7.87;;;;;;;32.86;34.24;101738.48;1537794;92;21614;-47
2021/07/26 17:08:19;;;;;;;9.53;7.83;;;;;;;32.84;34.50;101740.48;1542086;92;21088;-48
2021/07/26 17:10:46;;;;;;;8.70;7.20;;;;;;;32.81;35.00;101735.38;1547743;92;21136;-46
2021/07/26 17:13:15;;;;;;;8.90;7.80;;;;;;;32.78;35.29;101739.25;1557392;91;21048;-46
2021/07/26 17:15:43;;;;;;;13.05;9.20;;;;;;;32.76;35.66;101743.95;1587222;88;21029;-53
2021/07/26 17:18:10;;;;;;;22.42;16.27;;;;;;;32.72;35.84;101733.62;1594332;89;21093;-49
2021/07/26 17:20:36;;;;;;;23.70;16.93;;;;;;;32.69;35.96;101740.16;1591906;88;21129;-47
2021/07/26 17:23:05;;;;;;;21.70;16.62;;;;;;;32.66;36.01;101739.63;1590031;88;21570;-48
2021/07/26 17:25:33;;;;;;;26.05;23.25;;;;;;;32.63;35.87;101745.30;1565945;91;21579;-48
2021/07/26 17:27:59;;;;;;;24.75;19.85;;;;;;;32.60;35.73;101742.93;1581520;90;21101;-48
2021/07/26 17:30:26;;;;;;;23.65;17.17;;;;;;;32.57;35.73;101741.87;1593445;89;21592;-48
2021/07/26 17:32:53;;;;;;;18.23;14.38;;;;;;;32.53;35.85;101744.52;1593552;88;21055;-50
2021/07/26 17:35:20;;;;;;;15.38;11.22;;;;;;;32.50;36.04;101746.19;1607807;88;21062;-47
2021/07/26 17:37:48;;;;;;;16.12;9.28;;;;;;;32.47;36.19;101747.83;1638572;86;21115;-47
2021/07/26 17:40:16;;;;;;;10.70;7.67;;;;;;;32.44;36.36;101745.41;1641285;86;21164;-50
2021/07/26 17:42:44;;;;;;;6.92;6.25;;;;;;;32.41;36.37;101745.70;1640658;86;21123;-47
2021/07/26 17:45:11;;;;;;;9.83;6.65;;;;;;;32.36;36.51;101745.28;1642856;87;21040;-52
2021/07/26 17:47:39;;;;;;;10.72;7.05;;;;;;;32.32;36.55;101747.44;1620125;86;21618;-47
2021/07/26 17:50:06;;;;;;;8.58;5.85;;;;;;;32.28;36.74;101742.00;1626240;87;21747;-46
2021/07/26 17:52:37;;;;;;;7.08;5.87;;;;;;;32.25;36.91;101749.55;1640915;87;21092;-50
2021/07/26 17:55:08;;;;;;;15.95;8.48;;;;;;;32.22;36.83;101752.52;1639341;87;21547;-47
2021/07/26 17:57:35;;;;;;;28.20;15.65;;;;;;;32.18;37.01;101752.47;1642793;87;21532;-51
2021/07/26 18:00:01;;;;;;;25.50;20.75;;;;;;;32.13;36.92;101754.78;1625823;87;21022;-48
2021/07/26 18:02:30;;;;;;;30.72;20.90;;;;;;;32.07;36.84;101757.05;1618258;87;21026;-48
2021/07/26 18:04:57;;;;;;;30.10;17.75;;;;;;;32.04;36.51;101759.20;1631045;86;21099;-47
2021/07/26 18:07:31;;;;;;;30.10;16.67;;;;;;;31.99;36.41;101766.37;1624416;86;21077;-47
2021/07/26 18:09:54;;;;;;;22.75;17.07;;;;;;;31.96;37.47;101767.99;1628974;86;21053;-47
2021/07/26 18:12:21;;;;;;;22.70;18.07;;;;;;;31.92;39.23;101770.59;1626762;86;21061;-47
2021/07/26 18:14:48;;;;;;;27.05;18.82;;;;;;;31.88;40.77;101771.88;1606850;88;21548;-46
2021/07/26 18:17:15;;;;;;;25.60;15.25;;;;;;;31.83;41.58;101770.14;1642446;86;21072;-47